createdAt,value
2023-05-24T00:04:11.094Z,101035.34
2023-05-24T00:09:09.278Z,101030.09
2023-05-24T00:14:06.101Z,101024.69
2023-05-24T00:19:02.637Z,101025.75
2023-05-24T00:23:59.279Z,101026.22
2023-05-24T00:28:55.842Z,101032.66
2023-05-24T00:33:52.291Z,101024.53
2023-05-24T00:38:49.053Z,101018.94
2023-05-24T00:43:45.746Z,101012.41
2023-05-24T00:48:43.114Z,101006.41
2023-05-24T00:53:41.157Z,101022.13
2023-05-24T00:58:37.710Z,101014.81
2023-05-24T01:03:34.362Z,101013.13
2023-05-24T01:08:48.242Z,101002.16
2023-05-24T01:14:04.008Z,100991.22
2023-05-24T01:19:17.534Z,100986.25
2023-05-24T01:24:32.591Z,100983.19
2023-05-24T01:29:31.629Z,100982.81
2023-05-24T01:34:28.548Z,100980.59
2023-05-24T01:39:28.586Z,100996.69
2023-05-24T01:44:34.593Z,100995.88
2023-05-24T01:49:36.859Z,100991.56
2023-05-24T01:54:37.431Z,100989.19
2023-05-24T01:59:35.538Z,100983.53
2023-05-24T02:04:32.181Z,100980.66
2023-05-24T02:09:28.682Z,100983.34
2023-05-24T02:14:26.387Z,100984.72
2023-05-24T02:19:22.826Z,100982.56
2023-05-24T02:24:19.285Z,100977.53
2023-05-24T02:29:15.962Z,100982.66
2023-05-24T02:34:12.390Z,100980.13
2023-05-24T02:39:09.326Z,100985.25
2023-05-24T02:44:05.839Z,100987.75
2023-05-24T02:49:02.258Z,100981.69
2023-05-24T02:53:58.963Z,100990.50
2023-05-24T02:58:56.023Z,100985.38
2023-05-24T03:03:52.606Z,100985.38
2023-05-24T03:08:49.785Z,100982.22
2023-05-24T03:13:46.226Z,100977.13
2023-05-24T03:18:42.820Z,100990.97
2023-05-24T03:23:39.451Z,101000.16
2023-05-24T03:28:35.903Z,100985.41
2023-05-24T03:33:32.631Z,101000.09
2023-05-24T03:38:29.055Z,100998.00
2023-05-24T03:43:25.808Z,101007.75
2023-05-24T03:48:22.281Z,101008.44
2023-05-24T03:53:20.455Z,101010.75
2023-05-24T03:58:18.803Z,100998.63
2023-05-24T04:03:15.377Z,101005.91
2023-05-24T04:08:12.473Z,100999.03
2023-05-24T04:13:09.163Z,101010.47
2023-05-24T04:18:05.992Z,101009.94
2023-05-24T04:23:02.696Z,101002.81
2023-05-24T04:28:00.323Z,101006.81
2023-05-24T04:32:57.880Z,101009.69
2023-05-24T04:37:54.467Z,101017.09
2023-05-24T04:42:51.178Z,101025.69
2023-05-24T04:47:47.772Z,101019.97
2023-05-24T04:52:44.297Z,101012.69
2023-05-24T04:57:41.063Z,101030.09
2023-05-24T05:02:37.916Z,101034.25
2023-05-24T05:07:34.831Z,101037.03
2023-05-24T05:12:31.260Z,101032.28
2023-05-24T05:17:27.684Z,101019.53
2023-05-24T05:22:24.188Z,101015.38
2023-05-24T05:27:20.637Z,101013.59
2023-05-24T05:32:17.183Z,101024.63
2023-05-24T05:37:13.869Z,101028.78
2023-05-24T05:42:10.298Z,101029.56
2023-05-24T05:47:08.648Z,101019.00
2023-05-24T05:52:06.197Z,101017.81
2023-05-24T05:57:02.628Z,101020.41
2023-05-24T06:01:59.112Z,101027.31
2023-05-24T06:06:55.691Z,101031.69
2023-05-24T06:11:52.226Z,101027.09
2023-05-24T06:16:48.775Z,101022.31
2023-05-24T06:21:48.480Z,101017.94
2023-05-24T06:26:45.521Z,101020.31
2023-05-24T06:31:43.611Z,101024.28
2023-05-24T06:36:43.236Z,101022.28
2023-05-24T06:41:40.259Z,101017.50
2023-05-24T06:46:36.751Z,101020.03
2023-05-24T06:51:37.966Z,101028.16
2023-05-24T06:56:34.370Z,101022.22
2023-05-24T07:01:30.881Z,101016.97
2023-05-24T07:06:27.455Z,101035.81
2023-05-24T07:11:24.029Z,101041.69
2023-05-24T07:16:20.712Z,101040.91
2023-05-24T07:21:17.242Z,101041.06
2023-05-24T07:26:13.682Z,101041.47
2023-05-24T07:31:10.562Z,101051.56
2023-05-24T07:36:07.636Z,101060.00
2023-05-24T07:41:04.831Z,101048.00
2023-05-24T07:46:01.717Z,101043.19
2023-05-24T07:50:58.231Z,101036.69
2023-05-24T07:55:55.177Z,101043.28
2023-05-24T08:00:52.489Z,101037.63
2023-05-24T08:05:48.907Z,101035.19
2023-05-24T08:10:45.547Z,101030.91
2023-05-24T08:15:42.371Z,101033.09
2023-05-24T08:20:39.232Z,101038.75
2023-05-24T08:25:36.162Z,101047.28
2023-05-24T08:30:33.467Z,101041.75
2023-05-24T08:35:30.051Z,101042.63
2023-05-24T08:40:26.708Z,101035.13
2023-05-24T08:45:26.234Z,101033.28
2023-05-24T08:50:23.658Z,101047.44
2023-05-24T08:55:20.948Z,101043.69
2023-05-24T09:00:19.500Z,101035.13
2023-05-24T09:05:21.846Z,101038.66
2023-05-24T09:10:21.629Z,101047.94
2023-05-24T09:15:18.471Z,101050.28
2023-05-24T09:20:15.475Z,101047.94
2023-05-24T09:25:14.416Z,101052.41
2023-05-24T09:30:12.595Z,101061.56
2023-05-24T09:35:10.648Z,101067.88
2023-05-24T09:40:18.913Z,101064.63
2023-05-24T09:45:16.229Z,101064.53
2023-05-24T09:50:14.889Z,101066.41
2023-05-24T09:55:19.044Z,101071.03
2023-05-24T10:00:21.875Z,101069.09
2023-05-24T10:05:18.548Z,101066.88
2023-05-24T10:10:15.706Z,101069.00
2023-05-24T10:15:12.347Z,101062.72
2023-05-24T10:20:12.316Z,101068.28
2023-05-24T10:25:14.983Z,101077.28
2023-05-24T10:30:16.693Z,101077.00
2023-05-24T10:35:15.040Z,101071.97
2023-05-24T10:40:21.528Z,101074.34
2023-05-24T10:45:40.496Z,101077.03
2023-05-24T10:50:37.598Z,101084.50
2023-05-24T10:55:34.279Z,101088.94
2023-05-24T11:00:36.097Z,101089.91
2023-05-24T11:05:35.223Z,101080.31
2023-05-24T11:10:31.918Z,101075.88
2023-05-24T11:15:29.786Z,101074.56
2023-05-24T11:20:27.328Z,101078.00
2023-05-24T11:25:23.821Z,101078.59
2023-05-24T11:30:22.277Z,101073.63
2023-05-24T11:35:19.781Z,101077.78
2023-05-24T11:40:17.340Z,101068.41
2023-05-24T11:45:14.950Z,101058.38
2023-05-24T11:50:16.716Z,101066.09
2023-05-24T11:55:17.080Z,101057.94
2023-05-24T12:00:17.247Z,101062.28
2023-05-24T12:05:14.422Z,101059.03
2023-05-24T12:10:12.321Z,101061.19
2023-05-24T12:15:09.501Z,101062.06
2023-05-24T12:20:06.737Z,101054.63
2023-05-24T12:25:03.836Z,101064.50
2023-05-24T12:30:07.098Z,101064.41
2023-05-24T12:35:04.201Z,101066.84
2023-05-24T12:40:01.551Z,101070.06
2023-05-24T12:44:58.225Z,101064.84
2023-05-24T12:49:54.661Z,101066.22
2023-05-24T12:54:51.644Z,101068.63
2023-05-24T12:59:48.281Z,101068.66
2023-05-24T13:04:44.815Z,101062.66
2023-05-24T13:09:41.266Z,101070.94
2023-05-24T13:14:37.896Z,101067.25
2023-05-24T13:19:34.316Z,101064.47
2023-05-24T13:24:30.793Z,101064.75
2023-05-24T13:29:39.657Z,101063.94
2023-05-24T13:34:39.440Z,101065.34
2023-05-24T13:39:36.832Z,101064.88
2023-05-24T13:44:33.252Z,101055.22
2023-05-24T13:49:29.905Z,101061.94
2023-05-24T13:54:26.564Z,101049.94
2023-05-24T13:59:23.505Z,101053.22
2023-05-24T14:04:20.001Z,101067.50
2023-05-24T14:09:17.323Z,101063.50
2023-05-24T14:19:13.779Z,101064.38
2023-05-24T14:24:10.301Z,101070.19
2023-05-24T14:29:07.229Z,101069.38
2023-05-24T14:34:03.725Z,101064.53
2023-05-24T14:39:00.412Z,101069.81
2023-05-24T14:43:57.036Z,101069.38
2023-05-24T14:48:53.600Z,101073.72
2023-05-24T14:53:50.460Z,101066.69
2023-05-24T14:58:46.870Z,101068.13
2023-05-24T15:03:43.472Z,101063.41
2023-05-24T15:08:40.481Z,101080.78
2023-05-24T15:13:38.337Z,101076.63
2023-05-24T15:18:34.784Z,101081.03
2023-05-24T15:23:31.380Z,101074.94
2023-05-24T15:28:27.802Z,101073.22
2023-05-24T15:33:24.360Z,101077.78
2023-05-24T15:38:21.078Z,101082.19
2023-05-24T15:43:18.773Z,101083.41
2023-05-24T15:48:15.314Z,101079.47
2023-05-24T15:53:11.790Z,101091.38
2023-05-24T15:58:08.314Z,101086.84
2023-05-24T16:03:04.809Z,101083.69
2023-05-24T16:08:02.548Z,101075.69
2023-05-24T16:12:59.058Z,101070.28
2023-05-24T16:17:56.247Z,101068.84
2023-05-24T16:22:52.947Z,101071.00
2023-05-24T16:27:49.430Z,101061.94
2023-05-24T16:32:46.259Z,101060.66
2023-05-24T16:37:43.010Z,101059.06
2023-05-24T16:42:39.598Z,101058.91
2023-05-24T16:47:36.666Z,101066.41
2023-05-24T16:52:33.284Z,101049.97
2023-05-24T16:57:29.714Z,101046.00
2023-05-24T17:02:26.488Z,101049.81
2023-05-24T17:07:23.021Z,101045.13
2023-05-24T17:12:21.249Z,101042.94
2023-05-24T17:17:17.680Z,101051.50
2023-05-24T17:22:14.194Z,101046.06
2023-05-24T17:27:10.678Z,101048.59
2023-05-24T17:32:07.120Z,101049.25
2023-05-24T17:37:04.480Z,101050.88
2023-05-24T17:42:01.090Z,101050.13
2023-05-24T17:46:59.208Z,101061.53
2023-05-24T17:51:55.855Z,101065.19
2023-05-24T17:56:52.253Z,101059.75
2023-05-24T18:01:49.019Z,101063.03
2023-05-24T18:06:45.643Z,101064.16
2023-05-24T18:11:42.062Z,101065.97
2023-05-24T18:16:38.647Z,101068.28
2023-05-24T18:21:35.165Z,101064.13
2023-05-24T18:26:31.613Z,101066.81
2023-05-24T18:31:28.080Z,101064.38
2023-05-24T18:36:24.522Z,101071.78
2023-05-24T18:41:21.022Z,101075.16
2023-05-24T18:46:17.613Z,101070.81
2023-05-24T18:51:14.082Z,101084.69
2023-05-24T18:56:12.725Z,101083.16
2023-05-24T19:01:10.145Z,101085.28
2023-05-24T19:06:06.730Z,101092.34
2023-05-24T19:11:04.026Z,101093.31
2023-05-24T19:16:01.448Z,101103.00
2023-05-24T19:20:57.945Z,101103.16
2023-05-24T19:25:54.369Z,101112.84
2023-05-24T19:30:50.924Z,101111.19
2023-05-24T19:35:47.408Z,101117.81
2023-05-24T19:40:43.788Z,101123.13
2023-05-24T19:45:40.230Z,101131.25
2023-05-24T19:50:39.276Z,101135.72
2023-05-24T19:55:36.523Z,101140.16
2023-05-24T20:00:33.735Z,101148.66
2023-05-24T20:05:30.193Z,101158.19
2023-05-24T20:10:28.693Z,101160.59
2023-05-24T20:15:28.364Z,101161.16
2023-05-24T20:20:26.052Z,101160.94
2023-05-24T20:25:24.267Z,101163.59
2023-05-24T20:30:20.780Z,101157.06
2023-05-24T20:35:17.375Z,101170.19
2023-05-24T20:40:21.552Z,101163.56
2023-05-24T20:45:19.374Z,101161.66
2023-05-24T20:50:16.127Z,101167.56
2023-05-24T20:55:12.625Z,101175.47
2023-05-24T21:00:10.180Z,101173.88
2023-05-24T21:05:07.030Z,101185.53
2023-05-24T21:10:03.605Z,101193.75
2023-05-24T21:15:00.049Z,101195.22
2023-05-24T21:19:56.503Z,101200.84
2023-05-24T21:24:52.935Z,101199.28
2023-05-24T21:29:49.426Z,101212.09
2023-05-24T21:34:45.939Z,101215.16
2023-05-24T21:39:44.495Z,101220.41
2023-05-24T21:44:41.122Z,101218.78
2023-05-24T21:49:37.582Z,101213.56
2023-05-24T21:54:34.034Z,101219.66
2023-05-24T21:59:30.488Z,101223.75
2023-05-24T22:04:26.897Z,101224.44
2023-05-24T22:09:23.868Z,101228.00
2023-05-24T22:14:20.447Z,101237.22
2023-05-24T22:19:20.422Z,101249.56
2023-05-24T22:24:22.245Z,101247.78
2023-05-24T22:29:20.092Z,101241.97
2023-05-24T22:34:26.394Z,101237.59
2023-05-24T22:39:23.763Z,101239.22
2023-05-24T22:44:20.434Z,101246.81
2023-05-24T22:49:19.663Z,101258.88
2023-05-24T22:54:17.230Z,101262.56
2023-05-24T22:59:13.705Z,101266.53
2023-05-24T23:09:15.209Z,101261.50
2023-05-24T23:14:11.879Z,101269.72
2023-05-24T23:19:08.349Z,101282.06
2023-05-24T23:24:05.802Z,101283.28
2023-05-24T23:29:02.207Z,101282.91
2023-05-24T23:33:58.652Z,101287.19
2023-05-24T23:38:55.139Z,101288.13
2023-05-24T23:43:52.405Z,101290.47
2023-05-24T23:48:48.990Z,101292.31
2023-05-24T23:53:45.522Z,101289.53
2023-05-24T23:58:42.228Z,101300.16
